createdAt,value
2018-08-23T00:01:35.994Z,21.96
2018-08-23T00:04:07.341Z,21.95
2018-08-23T00:06:36.590Z,21.93
2018-08-23T00:09:08.016Z,21.92
2018-08-23T00:11:45.108Z,21.88
2018-08-23T00:14:14.147Z,21.86
2018-08-23T00:16:44.279Z,21.87
2018-08-23T00:19:12.668Z,21.88
2018-08-23T00:21:42.619Z,21.85
2018-08-23T00:24:15.216Z,21.82
2018-08-23T00:26:47.655Z,21.77
2018-08-23T00:29:32.729Z,21.72
2018-08-23T00:32:05.383Z,21.70
2018-08-23T00:34:37.865Z,21.68
2018-08-23T00:37:06.761Z,21.64
2018-08-23T00:39:34.997Z,21.66
2018-08-23T00:42:04.411Z,21.61
2018-08-23T00:44:55.553Z,21.61
2018-08-23T00:47:28.149Z,21.67
2018-08-23T00:49:56.540Z,21.61
2018-08-23T00:52:40.880Z,21.58
2018-08-23T00:55:27.397Z,21.66
2018-08-23T00:57:56.072Z,21.58
2018-08-23T01:00:25.890Z,21.49
2018-08-23T01:03:01.546Z,21.55
2018-08-23T01:05:35.576Z,21.47
2018-08-23T01:08:05.013Z,21.46
2018-08-23T01:10:34.128Z,21.41
2018-08-23T01:13:03.148Z,21.38
2018-08-23T01:15:32.378Z,21.38
2018-08-23T01:18:13.597Z,21.33
2018-08-23T01:20:42.996Z,21.27
2018-08-23T01:23:11.958Z,21.21
2018-08-23T01:25:42.335Z,21.30
2018-08-23T01:28:11.228Z,21.26
2018-08-23T01:30:40.010Z,21.26
2018-08-23T01:33:16.060Z,21.26
2018-08-23T01:35:45.894Z,21.25
2018-08-23T01:38:15.452Z,21.27
2018-08-23T01:40:43.981Z,21.33
2018-08-23T01:43:13.079Z,21.30
2018-08-23T01:45:41.296Z,21.29
2018-08-23T01:48:10.479Z,21.28
2018-08-23T01:50:39.605Z,21.28
2018-08-23T01:53:14.760Z,21.25
2018-08-23T01:55:43.422Z,21.23
2018-08-23T01:58:13.397Z,21.23
2018-08-23T02:00:42.000Z,21.20
2018-08-23T02:03:10.585Z,21.15
2018-08-23T02:05:42.284Z,21.14
2018-08-23T02:08:10.833Z,21.10
2018-08-23T02:10:40.675Z,21.05
2018-08-23T02:13:15.745Z,21.04
2018-08-23T02:15:49.807Z,21.03
2018-08-23T02:18:19.191Z,21.02
2018-08-23T02:20:49.600Z,21.03
2018-08-23T02:23:17.856Z,21.05
2018-08-23T02:25:46.120Z,21.06
2018-08-23T02:28:14.640Z,21.04
2018-08-23T02:30:53.584Z,20.97
2018-08-23T02:33:22.318Z,20.79
2018-08-23T02:36:18.868Z,20.89
2018-08-23T02:39:01.172Z,20.78
2018-08-23T02:41:30.152Z,20.74
2018-08-23T02:43:58.584Z,20.71
2018-08-23T02:46:26.784Z,20.74
2018-08-23T02:48:55.294Z,20.73
2018-08-23T02:51:40.349Z,20.75
2018-08-23T02:54:14.076Z,20.73
2018-08-23T02:56:46.388Z,20.70
2018-08-23T02:59:14.942Z,20.71
2018-08-23T03:01:45.624Z,20.61
2018-08-23T03:04:18.172Z,20.59
2018-08-23T03:06:57.720Z,20.62
2018-08-23T03:09:29.128Z,20.69
2018-08-23T03:11:59.630Z,20.77
2018-08-23T03:14:29.101Z,20.76
2018-08-23T03:18:04.531Z,20.69
2018-08-23T03:20:33.945Z,20.62
2018-08-23T03:23:02.327Z,20.55
2018-08-23T03:25:32.748Z,20.54
2018-08-23T03:28:08.043Z,20.51
2018-08-23T03:30:36.476Z,20.46
2018-08-23T03:33:04.725Z,20.45
2018-08-23T03:35:39.333Z,20.43
2018-08-23T03:38:07.572Z,20.44
2018-08-23T03:40:35.820Z,20.54
2018-08-23T03:43:04.225Z,20.51
2018-08-23T03:45:32.473Z,20.50
2018-08-23T03:48:00.782Z,20.49
2018-08-23T03:50:31.530Z,20.50
2018-08-23T03:52:59.732Z,20.54
2018-08-23T03:55:28.299Z,20.51
2018-08-23T03:58:00.812Z,20.50
2018-08-23T04:00:34.519Z,20.48
2018-08-23T04:03:07.353Z,20.49
2018-08-23T04:05:35.881Z,20.49
2018-08-23T04:08:04.543Z,20.44
2018-08-23T04:10:32.746Z,20.40
2018-08-23T04:13:01.225Z,20.34
2018-08-23T04:15:30.524Z,20.30
2018-08-23T04:18:04.607Z,20.30
2018-08-23T04:20:34.889Z,20.28
2018-08-23T04:23:03.624Z,20.29
2018-08-23T04:25:32.098Z,20.31
2018-08-23T04:28:00.578Z,20.34
2018-08-23T04:30:28.999Z,20.32
2018-08-23T04:32:57.878Z,20.33
2018-08-23T04:35:27.244Z,20.34
2018-08-23T04:37:55.806Z,20.35
2018-08-23T04:40:24.013Z,20.37
2018-08-23T04:42:52.383Z,20.39
2018-08-23T04:45:24.038Z,20.41
2018-08-23T04:47:57.869Z,20.43
2018-08-23T04:50:26.277Z,20.44
2018-08-23T04:52:54.649Z,20.47
2018-08-23T04:55:24.020Z,20.47
2018-08-23T04:57:52.437Z,20.51
2018-08-23T05:00:20.637Z,20.58
2018-08-23T05:02:49.188Z,20.60
2018-08-23T05:05:18.020Z,20.63
2018-08-23T05:07:46.669Z,20.76
2018-08-23T05:10:14.949Z,20.86
2018-08-23T05:12:43.245Z,20.98
2018-08-23T05:15:11.864Z,21.03
2018-08-23T05:17:40.513Z,21.14
2018-08-23T05:20:09.255Z,21.24
2018-08-23T05:22:38.363Z,21.31
2018-08-23T05:25:14.648Z,21.42
2018-08-23T05:28:07.772Z,21.62
2018-08-23T05:30:37.261Z,21.79
2018-08-23T05:33:23.925Z,21.91
2018-08-23T05:35:52.611Z,21.91
2018-08-23T05:38:21.480Z,21.95
2018-08-23T05:41:02.132Z,22.01
2018-08-23T05:43:30.508Z,22.10
2018-08-23T05:45:59.975Z,22.16
2018-08-23T05:48:29.617Z,22.27
2018-08-23T05:51:11.576Z,22.37
2018-08-23T05:53:45.311Z,22.51
2018-08-23T05:56:13.524Z,22.66
2018-08-23T05:58:42.313Z,22.66
2018-08-23T06:01:11.648Z,22.81
2018-08-23T06:03:40.280Z,22.78
2018-08-23T06:06:08.746Z,22.71
2018-08-23T06:08:41.073Z,22.75
2018-08-23T06:11:10.751Z,22.79
2018-08-23T06:13:39.448Z,22.84
2018-08-23T06:16:08.861Z,22.79
2018-08-23T06:18:38.924Z,22.80
2018-08-23T06:21:07.633Z,22.84
2018-08-23T06:23:57.608Z,22.84
2018-08-23T06:26:54.092Z,22.87
2018-08-23T06:29:29.710Z,23.00
2018-08-23T06:32:09.863Z,23.03
2018-08-23T06:34:57.432Z,23.23
2018-08-23T06:37:26.296Z,23.29
2018-08-23T06:39:56.131Z,23.39
2018-08-23T06:42:44.615Z,23.48
2018-08-23T06:45:13.206Z,23.49
2018-08-23T06:47:44.013Z,23.76
2018-08-23T06:50:20.716Z,23.63
2018-08-23T06:52:49.343Z,23.50
2018-08-23T06:57:55.038Z,23.91
2018-08-23T07:00:26.391Z,23.98
2018-08-23T07:02:54.992Z,24.11
2018-08-23T07:05:23.480Z,24.31
2018-08-23T07:07:52.722Z,24.49
2018-08-23T07:10:20.948Z,24.51
2018-08-23T07:12:49.428Z,24.69
2018-08-23T07:15:18.406Z,24.69
2018-08-23T07:17:46.893Z,24.82
2018-08-23T07:20:16.085Z,24.59
2018-08-23T07:22:44.944Z,24.45
2018-08-23T07:25:16.609Z,24.63
2018-08-23T07:27:45.203Z,24.43
2018-08-23T07:30:20.992Z,24.67
2018-08-23T07:32:50.627Z,24.79
2018-08-23T07:35:20.849Z,24.64
2018-08-23T07:37:50.665Z,24.73
2018-08-23T07:40:23.287Z,24.70
2018-08-23T07:42:52.783Z,24.59
2018-08-23T07:45:21.402Z,24.47
2018-08-23T07:47:51.111Z,24.40
2018-08-23T07:50:19.458Z,24.57
2018-08-23T07:52:49.342Z,24.47
2018-08-23T07:55:17.452Z,24.48
2018-08-23T07:57:46.084Z,24.50
2018-08-23T08:00:36.481Z,24.44
2018-08-23T08:03:05.142Z,24.54
2018-08-23T08:05:36.979Z,24.75
2018-08-23T08:08:06.824Z,24.77
2018-08-23T08:10:37.525Z,24.64
2018-08-23T08:13:05.887Z,24.68
2018-08-23T08:15:34.179Z,24.79
2018-08-23T08:18:23.527Z,24.76
2018-08-23T08:21:01.662Z,24.83
2018-08-23T08:23:31.212Z,25.00
2018-08-23T08:25:59.425Z,25.07
2018-08-23T08:28:27.989Z,25.39
2018-08-23T08:31:00.778Z,25.43
2018-08-23T08:33:37.109Z,25.49
2018-08-23T08:36:06.268Z,25.67
2018-08-23T08:38:35.308Z,25.93
2018-08-23T08:41:03.761Z,26.29
2018-08-23T08:43:32.011Z,26.50
2018-08-23T08:46:00.718Z,26.80
2018-08-23T08:48:32.317Z,27.01
2018-08-23T08:51:31.865Z,27.36
2018-08-23T08:54:02.569Z,27.51
2018-08-23T08:56:36.675Z,27.69
2018-08-23T08:59:05.084Z,28.03
2018-08-23T09:01:33.300Z,28.00
2018-08-23T09:04:02.014Z,27.89
2018-08-23T09:06:36.121Z,28.23
2018-08-23T09:09:28.860Z,28.44
2018-08-23T09:12:00.806Z,28.63
2018-08-23T09:14:29.496Z,28.61
2018-08-23T09:16:58.816Z,29.13
2018-08-23T09:19:44.205Z,29.40
2018-08-23T09:22:18.446Z,29.05
2018-08-23T09:24:47.102Z,29.12
2018-08-23T09:27:18.000Z,29.85
2018-08-23T09:29:46.832Z,30.11
2018-08-23T09:32:21.273Z,29.45
2018-08-23T09:34:54.677Z,29.88
2018-08-23T09:37:22.867Z,29.58
2018-08-23T09:39:51.228Z,29.27
2018-08-23T09:42:20.457Z,29.25
2018-08-23T09:45:02.007Z,28.98
2018-08-23T09:47:30.712Z,29.22
2018-08-23T09:49:59.710Z,28.96
2018-08-23T09:52:32.447Z,29.22
2018-08-23T09:55:00.648Z,29.10
2018-08-23T09:57:28.955Z,29.08
2018-08-23T09:59:57.261Z,28.82
2018-08-23T10:02:31.394Z,28.88
2018-08-23T10:05:03.681Z,29.04
2018-08-23T10:07:37.493Z,29.35
2018-08-23T10:10:11.521Z,29.41
2018-08-23T10:12:45.382Z,29.74
2018-08-23T10:15:19.336Z,30.58
2018-08-23T10:17:53.209Z,31.46
2018-08-23T10:20:27.185Z,31.76
2018-08-23T10:23:03.161Z,32.62
2018-08-23T10:25:38.623Z,33.16
2018-08-23T10:28:09.133Z,33.28
2018-08-23T10:30:37.748Z,33.49
2018-08-23T10:33:06.572Z,33.27
2018-08-23T10:35:35.726Z,33.73
2018-08-23T10:38:04.530Z,33.24
2018-08-23T10:40:33.077Z,33.06
2018-08-23T10:43:01.689Z,32.98
2018-08-23T10:45:29.946Z,33.14
2018-08-23T10:48:03.872Z,33.15
2018-08-23T10:50:33.179Z,33.64
2018-08-23T10:53:02.004Z,34.00
2018-08-23T10:55:30.249Z,33.96
2018-08-23T10:57:58.428Z,33.52
2018-08-23T11:00:26.645Z,33.50
2018-08-23T11:02:55.150Z,33.59
2018-08-23T11:05:23.507Z,33.06
2018-08-23T11:07:57.365Z,33.33
2018-08-23T11:10:31.391Z,32.85
2018-08-23T11:13:05.332Z,32.41
2018-08-23T11:15:33.792Z,32.62
2018-08-23T11:18:08.150Z,33.13
2018-08-23T11:20:41.933Z,33.78
2018-08-23T11:23:10.339Z,33.48
2018-08-23T11:25:38.652Z,32.69
2018-08-23T11:28:12.742Z,32.93
2018-08-23T11:30:42.422Z,33.48
2018-08-23T11:33:11.199Z,33.31
2018-08-23T11:35:39.413Z,33.67
2018-08-23T11:38:08.620Z,34.06
2018-08-23T11:40:37.939Z,34.21
2018-08-23T11:43:06.117Z,33.97
2018-08-23T11:45:34.944Z,33.67
2018-08-23T11:48:03.171Z,33.41
2018-08-23T11:50:31.636Z,33.32
2018-08-23T11:52:59.867Z,33.22
2018-08-23T11:55:29.015Z,32.98
2018-08-23T11:57:57.627Z,32.51
2018-08-23T12:00:26.109Z,32.17
2018-08-23T12:02:54.533Z,32.05
2018-08-23T12:05:23.485Z,31.56
2018-08-23T12:07:52.984Z,31.16
2018-08-23T12:10:22.670Z,30.85
2018-08-23T12:12:52.264Z,30.67
2018-08-23T12:15:29.598Z,30.36
2018-08-23T12:17:58.184Z,30.09
2018-08-23T12:20:26.829Z,29.71
2018-08-23T12:22:55.111Z,28.55
2018-08-23T12:25:23.289Z,25.60
2018-08-23T12:28:01.961Z,23.80
2018-08-23T12:30:31.647Z,22.59
2018-08-23T12:32:59.870Z,22.13
2018-08-23T12:35:29.366Z,21.46
2018-08-23T12:38:03.425Z,21.00
2018-08-23T12:40:37.558Z,20.96
2018-08-23T12:43:14.078Z,21.01
2018-08-23T12:45:44.017Z,21.08
2018-08-23T12:48:13.561Z,21.13
2018-08-23T12:50:42.947Z,21.01
2018-08-23T12:53:11.362Z,21.03
2018-08-23T12:55:40.392Z,20.95
2018-08-23T12:58:09.305Z,20.92
2018-08-23T13:00:38.571Z,20.93
2018-08-23T13:03:07.436Z,20.94
2018-08-23T13:05:36.315Z,20.85
2018-08-23T13:08:05.623Z,21.00
2018-08-23T13:10:34.586Z,21.15
2018-08-23T13:13:03.301Z,21.34
2018-08-23T13:15:32.008Z,21.42
2018-08-23T13:18:00.433Z,21.45
2018-08-23T13:20:28.938Z,21.55
2018-08-23T13:22:57.282Z,21.39
2018-08-23T13:25:26.245Z,21.35
2018-08-23T13:27:54.534Z,21.45
2018-08-23T13:30:22.749Z,21.48
2018-08-23T13:32:51.310Z,21.41
2018-08-23T13:35:19.907Z,21.39
2018-08-23T13:37:48.676Z,21.45
2018-08-23T13:40:18.778Z,21.45
2018-08-23T13:42:47.994Z,21.58
2018-08-23T13:45:16.687Z,21.58
2018-08-23T13:47:44.922Z,21.61
2018-08-23T13:50:13.117Z,21.74
2018-08-23T13:52:41.574Z,21.82
2018-08-23T13:55:10.390Z,21.87
2018-08-23T13:57:40.125Z,21.82
2018-08-23T14:00:14.671Z,21.71
2018-08-23T14:02:43.202Z,21.67
2018-08-23T14:05:12.398Z,21.61
2018-08-23T14:07:41.822Z,22.10
2018-08-23T14:10:11.125Z,22.38
2018-08-23T14:12:40.041Z,22.47
2018-08-23T14:15:14.360Z,22.71
2018-08-23T14:17:42.824Z,22.47
2018-08-23T14:20:10.989Z,22.44
2018-08-23T14:22:39.430Z,22.56
2018-08-23T14:25:08.018Z,22.65
2018-08-23T14:27:36.479Z,22.76
2018-08-23T14:30:04.939Z,23.05
2018-08-23T14:32:33.725Z,23.00
2018-08-23T14:35:01.921Z,23.07
2018-08-23T14:37:31.345Z,22.98
2018-08-23T14:39:59.730Z,22.97
2018-08-23T14:42:29.003Z,23.17
2018-08-23T14:44:57.327Z,23.17
2018-08-23T14:47:32.067Z,23.49
2018-08-23T14:50:01.039Z,23.92
2018-08-23T14:52:29.908Z,23.83
2018-08-23T14:54:58.316Z,23.98
2018-08-23T14:57:33.131Z,24.13
2018-08-23T15:00:02.377Z,24.44
2018-08-23T15:02:30.715Z,24.57
2018-08-23T15:05:00.207Z,24.67
2018-08-23T15:07:28.867Z,24.90
2018-08-23T15:09:57.475Z,24.99
2018-08-23T15:12:26.277Z,24.89
2018-08-23T15:14:54.699Z,24.61
2018-08-23T15:17:23.389Z,24.69
2018-08-23T15:19:51.828Z,24.74
2018-08-23T15:22:20.621Z,24.69
2018-08-23T15:24:49.533Z,24.60
2018-08-23T15:27:18.467Z,24.76
2018-08-23T15:29:47.072Z,24.60
2018-08-23T15:32:15.344Z,24.69
2018-08-23T15:34:44.084Z,24.72
2018-08-23T15:37:12.389Z,25.02
2018-08-23T15:39:40.597Z,25.10
2018-08-23T15:42:08.970Z,25.04
2018-08-23T15:44:37.390Z,25.36
2018-08-23T15:47:05.759Z,25.50
2018-08-23T15:49:35.436Z,25.76
2018-08-23T15:52:04.164Z,25.91
2018-08-23T15:54:32.424Z,26.30
2018-08-23T15:57:01.177Z,26.85
2018-08-23T15:59:29.516Z,26.94
2018-08-23T16:01:57.945Z,26.77
2018-08-23T16:04:26.246Z,26.96
2018-08-23T16:06:54.602Z,26.23
2018-08-23T16:09:23.898Z,26.38
2018-08-23T16:11:52.212Z,26.83
2018-08-23T16:14:20.487Z,26.50
2018-08-23T16:16:54.923Z,26.12
2018-08-23T16:19:29.004Z,26.26
2018-08-23T16:21:58.441Z,25.61
2018-08-23T16:24:27.656Z,25.36
2018-08-23T16:27:02.830Z,25.03
2018-08-23T16:29:31.326Z,24.69
2018-08-23T16:31:59.930Z,24.75
2018-08-23T16:34:28.420Z,24.85
2018-08-23T16:36:56.763Z,24.73
2018-08-23T16:39:25.672Z,24.95
2018-08-23T16:41:54.631Z,25.43
2018-08-23T16:44:23.136Z,25.83
2018-08-23T16:46:51.412Z,27.93
2018-08-23T16:49:19.793Z,29.55
2018-08-23T16:51:48.213Z,30.30
2018-08-23T16:54:16.753Z,29.34
2018-08-23T16:56:45.203Z,28.29
2018-08-23T16:59:14.701Z,29.76
2018-08-23T17:01:43.724Z,31.18
2018-08-23T17:04:12.295Z,32.06
2018-08-23T17:06:41.529Z,32.37
2018-08-23T17:09:09.940Z,32.50
2018-08-23T17:11:38.405Z,31.79
2018-08-23T17:14:06.710Z,31.90
2018-08-23T17:16:41.291Z,31.36
2018-08-23T17:19:09.664Z,31.04
2018-08-23T17:21:38.884Z,30.58
2018-08-23T17:24:07.185Z,29.37
2018-08-23T17:26:36.289Z,27.91
2018-08-23T17:29:05.153Z,26.82
2018-08-23T17:31:34.128Z,26.59
2018-08-23T17:34:03.056Z,26.03
2018-08-23T17:36:31.368Z,25.59
2018-08-23T17:39:01.038Z,25.32
2018-08-23T17:41:30.155Z,25.03
2018-08-23T17:43:59.345Z,24.80
2018-08-23T17:46:27.681Z,24.60
2018-08-23T17:48:56.212Z,24.57
2018-08-23T17:51:25.081Z,24.50
2018-08-23T17:53:53.923Z,24.41
2018-08-23T17:56:22.806Z,24.32
2018-08-23T17:58:51.785Z,24.28
2018-08-23T18:01:20.187Z,24.23
2018-08-23T18:03:49.297Z,24.14
2018-08-23T18:06:18.319Z,24.07
2018-08-23T18:08:47.052Z,24.06
2018-08-23T18:11:16.000Z,23.95
2018-08-23T18:13:45.244Z,23.82
2018-08-23T18:16:19.380Z,23.68
2018-08-23T18:18:47.872Z,23.71
2018-08-23T18:21:16.651Z,23.59
2018-08-23T18:23:46.098Z,23.62
2018-08-23T18:26:14.954Z,23.47
2018-08-23T18:28:43.504Z,23.39
2018-08-23T18:31:12.349Z,23.34
2018-08-23T18:33:41.661Z,23.32
2018-08-23T18:36:12.046Z,23.32
2018-08-23T18:38:40.865Z,23.32
2018-08-23T18:41:10.722Z,23.27
2018-08-23T18:43:39.364Z,23.17
2018-08-23T18:46:08.560Z,23.09
2018-08-23T18:48:37.282Z,22.91
2018-08-23T18:51:05.931Z,22.81
2018-08-23T18:53:34.540Z,22.77
2018-08-23T18:56:03.264Z,22.81
2018-08-23T18:58:31.674Z,22.69
2018-08-23T19:01:00.466Z,22.82
2018-08-23T19:03:29.640Z,22.65
2018-08-23T19:05:58.700Z,22.57
2018-08-23T19:08:27.040Z,22.51
2018-08-23T19:10:55.936Z,22.51
2018-08-23T19:13:24.586Z,22.33
2018-08-23T19:15:58.852Z,22.20
2018-08-23T19:18:28.393Z,22.15
2018-08-23T19:20:57.333Z,22.16
2018-08-23T19:23:27.762Z,22.27
2018-08-23T19:25:56.501Z,22.27
2018-08-23T19:28:24.908Z,22.34
2018-08-23T19:30:54.604Z,22.35
2018-08-23T19:33:23.451Z,22.32
2018-08-23T19:35:51.817Z,22.41
2018-08-23T19:38:20.169Z,22.34
2018-08-23T19:40:48.580Z,22.24
2018-08-23T19:43:17.112Z,22.22
2018-08-23T19:45:52.439Z,22.29
2018-08-23T19:48:21.311Z,22.30
2018-08-23T19:50:50.487Z,22.27
2018-08-23T19:53:18.809Z,22.28
2018-08-23T19:55:47.222Z,22.26
2018-08-23T19:58:15.489Z,22.20
2018-08-23T20:00:44.193Z,22.11
2018-08-23T20:03:13.266Z,21.95
2018-08-23T20:05:41.637Z,21.94
2018-08-23T20:08:10.697Z,21.92
2018-08-23T20:10:39.937Z,21.93
2018-08-23T20:13:08.639Z,22.03
2018-08-23T20:15:37.008Z,22.14
2018-08-23T20:18:05.678Z,22.11
2018-08-23T20:20:33.928Z,22.15
2018-08-23T20:23:02.490Z,22.25
2018-08-23T20:25:30.916Z,22.17
2018-08-23T20:28:00.336Z,22.11
2018-08-23T20:30:28.927Z,22.15
2018-08-23T20:32:57.579Z,22.14
2018-08-23T20:35:25.771Z,22.10
2018-08-23T20:37:54.400Z,22.17
2018-08-23T20:40:23.007Z,22.20
2018-08-23T20:42:51.351Z,22.13
2018-08-23T20:45:19.638Z,22.05
2018-08-23T20:47:48.175Z,22.03
2018-08-23T20:50:16.786Z,21.92
2018-08-23T20:52:45.523Z,21.99
2018-08-23T20:55:13.827Z,21.90
2018-08-23T20:57:42.502Z,21.85
2018-08-23T21:00:10.795Z,21.85
2018-08-23T21:02:39.710Z,21.79
2018-08-23T21:05:08.667Z,21.81
2018-08-23T21:07:37.603Z,21.85
2018-08-23T21:10:06.075Z,21.91
2018-08-23T21:12:34.648Z,21.97
2018-08-23T21:15:03.027Z,22.08
2018-08-23T21:17:32.259Z,22.02
2018-08-23T21:20:00.828Z,22.22
2018-08-23T21:22:29.541Z,22.34
2018-08-23T21:24:58.293Z,22.39
2018-08-23T21:27:26.606Z,22.28
2018-08-23T21:29:54.917Z,22.42
2018-08-23T21:32:23.261Z,22.46
2018-08-23T21:34:51.763Z,22.49
2018-08-23T21:37:20.542Z,22.47
2018-08-23T21:39:49.561Z,22.45
2018-08-23T21:42:18.172Z,22.56
2018-08-23T21:44:46.658Z,22.58
2018-08-23T21:47:15.524Z,22.53
2018-08-23T21:49:44.071Z,22.48
2018-08-23T21:52:13.445Z,22.44
2018-08-23T21:54:41.887Z,22.41
2018-08-23T21:57:10.306Z,22.51
2018-08-23T21:59:38.864Z,22.34
2018-08-23T22:02:12.956Z,22.19
2018-08-23T22:04:47.366Z,22.04
2018-08-23T22:07:16.337Z,22.03
2018-08-23T22:09:48.430Z,22.06
2018-08-23T22:12:19.335Z,21.98
2018-08-23T22:14:48.090Z,21.94
2018-08-23T22:17:17.124Z,22.03
2018-08-23T22:19:45.968Z,22.00
2018-08-23T22:22:14.707Z,22.01
2018-08-23T22:24:43.649Z,22.17
2018-08-23T22:27:12.280Z,22.09
2018-08-23T22:29:40.594Z,22.00
2018-08-23T22:32:09.269Z,21.93
2018-08-23T22:34:38.020Z,22.01
2018-08-23T22:37:06.855Z,21.92
2018-08-23T22:39:35.460Z,22.03
2018-08-23T22:42:04.019Z,22.09
2018-08-23T22:44:32.671Z,21.94
2018-08-23T22:47:01.025Z,21.88
2018-08-23T22:49:29.760Z,21.90
2018-08-23T22:51:58.413Z,21.81
2018-08-23T22:54:27.228Z,21.93
2018-08-23T22:56:55.725Z,21.94
2018-08-23T22:59:25.762Z,21.86
2018-08-23T23:01:54.367Z,21.77
2018-08-23T23:04:26.078Z,21.63
2018-08-23T23:06:55.982Z,21.58
2018-08-23T23:09:25.460Z,21.47
2018-08-23T23:11:53.886Z,21.37
2018-08-23T23:14:23.092Z,21.36
2018-08-23T23:16:53.687Z,21.31
2018-08-23T23:19:24.216Z,21.25
2018-08-23T23:21:52.648Z,21.17
2018-08-23T23:24:26.860Z,21.16
2018-08-23T23:26:56.338Z,21.08
2018-08-23T23:29:25.372Z,21.04
2018-08-23T23:31:54.279Z,21.01
2018-08-23T23:34:23.328Z,21.05
2018-08-23T23:36:52.931Z,21.01
2018-08-23T23:39:21.651Z,21.05
2018-08-23T23:41:50.588Z,21.18
2018-08-23T23:44:19.102Z,21.17
2018-08-23T23:46:47.389Z,21.14
2018-08-23T23:49:15.795Z,21.22
2018-08-23T23:51:44.070Z,21.11
2018-08-23T23:54:12.529Z,20.95
2018-08-23T23:56:40.865Z,20.90
2018-08-23T23:59:09.962Z,21.00
